Time;durP1;ratioP1;P1;durP2;ratioP2;P2;SDS_P1;SDS_P2;PMS_P1;PMS_P2;Temp;Humidity;BMP_temperature;BMP_pressure;BME280_temperature;BME280_humidity;BME280_pressure;Samples;Min_cycle;Max_cycle;Signal;HPM_P1;HPM_P2
2023/03/03 00:00:08;;;;;;;40.58;16.58;;;;;;;;;;4991308;28;20034;-62
2023/03/03 00:02:33;;;;;;;37.58;15.88;;;;;;;;;;4990665;28;20054;-62
2023/03/03 00:04:58;;;;;;;43.60;17.00;;;;;;;;;;4988342;28;20061;-63
2023/03/03 00:07:23;;;;;;;40.78;16.40;;;;;;;;;;4991403;28;20037;-62
2023/03/03 00:09:49;;;;;;;44.28;17.02;;;;;;;;;;4991919;28;20014;-62
2023/03/03 00:12:22;;;;;;;50.63;19.05;;;;;;;;;;4988111;28;20490;-64
2023/03/03 00:14:47;;;;;;;46.25;16.58;;;;;;;;;;4989615;28;20018;-62
2023/03/03 00:17:17;;;;;;;53.67;20.40;;;;;;;;;;4984646;28;20022;-63
2023/03/03 00:19:46;;;;;;;50.55;18.10;;;;;;;;;;4991529;28;20022;-63
2023/03/03 00:22:14;;;;;;;51.78;19.92;;;;;;;;;;4989557;28;20018;-65
2023/03/03 00:24:39;;;;;;;47.83;18.23;;;;;;;;;;4989396;28;20034;-63
2023/03/03 00:27:23;;;;;;;61.37;20.67;;;;;;;;;;4989592;28;20546;-61
2023/03/03 00:29:52;;;;;;;51.05;19.38;;;;;;;;;;4991455;28;20026;-62
2023/03/03 00:32:20;;;;;;;52.63;18.85;;;;;;;;;;4990587;28;20023;-63
2023/03/03 00:34:46;;;;;;;54.38;20.33;;;;;;;;;;4989449;28;20030;-62
2023/03/03 00:37:26;;;;;;;52.65;19.63;;;;;;;;;;4990417;28;20080;-62
2023/03/03 00:39:52;;;;;;;54.92;18.75;;;;;;;;;;4986968;28;20033;-61
2023/03/03 00:42:17;;;;;;;60.37;21.53;;;;;;;;;;4990522;28;20105;-62
2023/03/03 00:44:44;;;;;;;54.03;20.00;;;;;;;;;;4988158;28;20026;-62
2023/03/03 00:47:26;;;;;;;73.45;23.25;;;;;;;;;;4996366;28;20022;-62
2023/03/03 00:50:11;;;;;;;67.30;22.23;;;;;;;;;;4981965;28;20030;-63
2023/03/03 00:52:43;;;;;;;56.67;20.60;;;;;;;;;;4989212;28;20057;-63
2023/03/03 00:55:10;;;;;;;69.72;22.92;;;;;;;;;;4987667;28;20026;-63
2023/03/03 00:57:35;;;;;;;59.90;21.00;;;;;;;;;;4989343;28;20037;-62
2023/03/03 01:00:00;;;;;;;60.43;20.70;;;;;;;;;;4990842;28;20022;-63
2023/03/03 01:02:25;;;;;;;76.47;22.13;;;;;;;;;;4989428;28;20027;-62
2023/03/03 01:04:52;;;;;;;63.20;21.67;;;;;;;;;;4988518;28;20502;-62
2023/03/03 01:07:17;;;;;;;74.50;21.90;;;;;;;;;;4989883;28;20030;-63
2023/03/03 01:09:42;;;;;;;56.15;19.95;;;;;;;;;;4988974;28;20026;-61
2023/03/03 01:12:08;;;;;;;62.53;20.97;;;;;;;;;;4990804;28;20053;-63
2023/03/03 01:14:33;;;;;;;66.43;21.10;;;;;;;;;;4989938;28;20022;-62
2023/03/03 01:16:58;;;;;;;56.83;19.67;;;;;;;;;;4990074;28;20026;-62
2023/03/03 01:19:24;;;;;;;69.00;21.77;;;;;;;;;;4989523;28;20130;-63
2023/03/03 01:21:49;;;;;;;60.55;21.02;;;;;;;;;;4987527;28;20057;-63
2023/03/03 01:24:14;;;;;;;65.73;21.77;;;;;;;;;;4983391;28;20077;-63
2023/03/03 01:26:39;;;;;;;60.33;20.73;;;;;;;;;;4989085;28;20453;-63
2023/03/03 01:29:05;;;;;;;70.70;23.00;;;;;;;;;;4988455;28;20019;-60
2023/03/03 01:31:30;;;;;;;63.87;20.90;;;;;;;;;;4990207;28;20110;-62
2023/03/03 01:33:55;;;;;;;61.67;21.63;;;;;;;;;;4988492;28;20096;-62
2023/03/03 01:36:23;;;;;;;71.05;22.33;;;;;;;;;;4987538;28;20026;-63
2023/03/03 01:38:48;;;;;;;60.83;20.48;;;;;;;;;;4989703;28;20030;-64
2023/03/03 01:41:14;;;;;;;54.70;20.45;;;;;;;;;;4989615;28;20061;-63
2023/03/03 01:43:44;;;;;;;59.40;19.70;;;;;;;;;;4998951;28;20505;-63
2023/03/03 01:46:09;;;;;;;60.22;20.40;;;;;;;;;;4986235;28;20105;-61
2023/03/03 01:48:39;;;;;;;67.68;21.77;;;;;;;;;;4993120;28;20102;-62
2023/03/03 01:51:06;;;;;;;53.85;19.83;;;;;;;;;;4994502;28;20497;-64
2023/03/03 01:53:41;;;;;;;56.60;21.05;;;;;;;;;;4987324;28;20018;-63
2023/03/03 01:56:07;;;;;;;60.88;20.05;;;;;;;;;;4993190;28;20105;-63
2023/03/03 01:58:35;;;;;;;60.40;19.95;;;;;;;;;;4990317;28;20053;-63
2023/03/03 02:01:05;;;;;;;57.75;20.20;;;;;;;;;;4998003;28;20509;-64
2023/03/03 02:03:30;;;;;;;55.53;18.60;;;;;;;;;;5001961;28;20501;-64
2023/03/03 02:05:57;;;;;;;55.77;19.90;;;;;;;;;;4982348;28;20026;-63
2023/03/03 02:08:26;;;;;;;51.92;18.48;;;;;;;;;;4985396;28;20565;-63
2023/03/03 02:10:55;;;;;;;59.63;19.80;;;;;;;;;;4995384;28;20442;-65
2023/03/03 02:13:20;;;;;;;56.20;19.73;;;;;;;;;;4996884;28;20030;-62
2023/03/03 02:15:45;;;;;;;50.03;18.07;;;;;;;;;;4983684;28;20019;-63
2023/03/03 02:18:15;;;;;;;57.20;19.27;;;;;;;;;;4989212;28;20025;-63
2023/03/03 02:20:45;;;;;;;59.42;19.80;;;;;;;;;;4987612;28;20367;-64
2023/03/03 02:23:19;;;;;;;53.17;19.30;;;;;;;;;;4985410;28;20530;-62
2023/03/03 02:25:56;;;;;;;55.80;18.77;;;;;;;;;;4989627;28;20022;-63
2023/03/03 02:28:31;;;;;;;51.80;17.75;;;;;;;;;;4995126;28;20101;-64
2023/03/03 02:30:58;;;;;;;61.03;18.95;;;;;;;;;;4986416;28;20018;-63
2023/03/03 02:33:24;;;;;;;49.20;17.25;;;;;;;;;;4992509;28;20059;-63
2023/03/03 02:35:49;;;;;;;54.75;18.73;;;;;;;;;;4989821;28;20030;-61
2023/03/03 02:38:23;;;;;;;47.22;17.85;;;;;;;;;;4996244;28;20105;-62
2023/03/03 02:40:54;;;;;;;52.78;17.45;;;;;;;;;;4995585;28;20058;-63
2023/03/03 02:43:22;;;;;;;49.40;16.85;;;;;;;;;;4994410;28;20037;-63
2023/03/03 02:45:47;;;;;;;52.90;16.52;;;;;;;;;;4993266;28;20026;-62
2023/03/03 02:48:12;;;;;;;45.37;16.57;;;;;;;;;;4994718;28;20027;-62
2023/03/03 02:50:37;;;;;;;54.50;18.07;;;;;;;;;;4989699;28;20054;-62
2023/03/03 02:53:03;;;;;;;52.20;17.80;;;;;;;;;;4992817;28;20030;-62
2023/03/03 02:55:28;;;;;;;52.63;17.20;;;;;;;;;;4989472;28;20156;-61
2023/03/03 02:57:53;;;;;;;53.00;19.20;;;;;;;;;;4997449;28;20049;-63
2023/03/03 03:00:20;;;;;;;50.10;17.33;;;;;;;;;;4996414;28;20058;-62
2023/03/03 03:02:45;;;;;;;48.97;17.02;;;;;;;;;;5002804;28;20034;-63
2023/03/03 03:05:10;;;;;;;51.77;16.27;;;;;;;;;;4989829;28;20022;-62
2023/03/03 03:07:35;;;;;;;48.17;17.00;;;;;;;;;;5000045;28;20034;-62
2023/03/03 03:10:00;;;;;;;56.70;18.52;;;;;;;;;;4994445;28;20030;-60
2023/03/03 03:12:26;;;;;;;53.53;18.13;;;;;;;;;;5004897;28;20030;-62
2023/03/03 03:14:51;;;;;;;48.30;17.23;;;;;;;;;;4992102;28;20015;-63
2023/03/03 03:17:16;;;;;;;44.35;16.15;;;;;;;;;;4990214;28;20018;-63
2023/03/03 03:19:41;;;;;;;42.87;15.87;;;;;;;;;;4991119;28;20053;-63
2023/03/03 03:22:06;;;;;;;47.50;16.73;;;;;;;;;;4990182;28;20457;-62
2023/03/03 03:24:31;;;;;;;44.63;15.53;;;;;;;;;;4983687;28;20038;-63
2023/03/03 03:26:57;;;;;;;48.10;16.25;;;;;;;;;;4990287;28;20028;-61
2023/03/03 03:29:22;;;;;;;42.83;15.82;;;;;;;;;;4992538;28;20026;-63
2023/03/03 03:31:47;;;;;;;41.33;15.05;;;;;;;;;;4991707;28;20038;-63
2023/03/03 03:34:12;;;;;;;44.30;15.67;;;;;;;;;;4990924;28;20439;-64
2023/03/03 03:36:38;;;;;;;45.35;15.90;;;;;;;;;;4989138;28;20030;-64
2023/03/03 03:39:05;;;;;;;51.38;16.05;;;;;;;;;;4990837;28;20026;-63
2023/03/03 03:41:30;;;;;;;45.67;14.90;;;;;;;;;;4990506;28;20034;-62
2023/03/03 03:43:55;;;;;;;44.53;15.43;;;;;;;;;;4990013;28;20014;-63
2023/03/03 03:46:20;;;;;;;38.33;14.43;;;;;;;;;;4991452;28;20504;-64
2023/03/03 03:48:45;;;;;;;47.30;16.37;;;;;;;;;;4992372;28;20033;-63
2023/03/03 03:51:11;;;;;;;45.53;15.30;;;;;;;;;;4992345;28;20026;-63
2023/03/03 03:53:36;;;;;;;40.47;14.07;;;;;;;;;;4990841;28;20537;-64
2023/03/03 03:56:01;;;;;;;56.28;17.05;;;;;;;;;;4990972;28;20022;-63
2023/03/03 03:58:26;;;;;;;42.67;15.75;;;;;;;;;;4993297;28;20129;-64
2023/03/03 04:00:52;;;;;;;47.67;16.27;;;;;;;;;;4991802;28;20045;-64
2023/03/03 04:03:17;;;;;;;46.57;15.83;;;;;;;;;;4993394;28;20037;-63
2023/03/03 04:05:43;;;;;;;41.05;14.98;;;;;;;;;;4997190;28;20046;-62
2023/03/03 04:08:08;;;;;;;42.63;15.07;;;;;;;;;;4993845;28;20033;-64
2023/03/03 04:10:34;;;;;;;46.50;16.43;;;;;;;;;;4994992;28;20406;-63
2023/03/03 04:12:59;;;;;;;46.33;15.73;;;;;;;;;;4990694;28;21021;-63
2023/03/03 04:15:24;;;;;;;38.70;14.37;;;;;;;;;;4991560;28;20025;-61
2023/03/03 04:17:49;;;;;;;43.23;14.43;;;;;;;;;;4991486;28;20035;-62
2023/03/03 04:20:15;;;;;;;43.90;15.80;;;;;;;;;;4990794;28;20052;-63
2023/03/03 04:22:40;;;;;;;41.65;15.05;;;;;;;;;;4992090;28;20023;-63
2023/03/03 04:25:06;;;;;;;49.38;16.30;;;;;;;;;;4994359;28;20014;-62
2023/03/03 04:27:35;;;;;;;52.78;16.77;;;;;;;;;;4997499;28;20018;-62
2023/03/03 04:30:00;;;;;;;44.13;14.65;;;;;;;;;;5000504;28;20145;-62
2023/03/03 04:32:25;;;;;;;51.73;16.57;;;;;;;;;;4992714;28;20105;-63
2023/03/03 04:34:50;;;;;;;55.25;16.55;;;;;;;;;;4992394;28;20452;-63
2023/03/03 04:37:16;;;;;;;40.43;13.63;;;;;;;;;;5003756;28;20089;-63
2023/03/03 04:39:41;;;;;;;49.88;14.98;;;;;;;;;;4989745;28;20022;-63
2023/03/03 04:42:06;;;;;;;39.40;14.07;;;;;;;;;;4986452;28;20030;-63
2023/03/03 04:44:31;;;;;;;51.40;16.77;;;;;;;;;;4994381;28;20018;-62
2023/03/03 04:46:56;;;;;;;42.05;13.27;;;;;;;;;;4990824;28;20026;-63
2023/03/03 04:49:21;;;;;;;47.85;15.82;;;;;;;;;;4991836;28;20053;-63
2023/03/03 04:51:47;;;;;;;45.00;14.27;;;;;;;;;;4986604;28;20092;-63
2023/03/03 04:54:12;;;;;;;37.87;12.33;;;;;;;;;;4996032;28;20030;-65
2023/03/03 04:56:37;;;;;;;39.70;13.90;;;;;;;;;;4995090;28;20034;-62
2023/03/03 04:59:02;;;;;;;36.92;12.50;;;;;;;;;;4991312;28;20021;-62
2023/03/03 05:01:27;;;;;;;37.27;13.40;;;;;;;;;;4990930;28;20015;-62
2023/03/03 05:03:52;;;;;;;34.80;13.40;;;;;;;;;;4991312;28;20375;-61
2023/03/03 05:06:17;;;;;;;41.50;13.55;;;;;;;;;;4987878;28;20394;-61
2023/03/03 05:08:43;;;;;;;33.90;12.67;;;;;;;;;;4989040;28;20022;-63
2023/03/03 05:11:09;;;;;;;32.97;12.13;;;;;;;;;;4989835;28;20401;-62
2023/03/03 05:13:34;;;;;;;41.17;14.23;;;;;;;;;;4998176;28;20022;-64
2023/03/03 05:15:59;;;;;;;32.83;12.37;;;;;;;;;;4986886;28;20168;-63
2023/03/03 05:18:25;;;;;;;41.27;13.03;;;;;;;;;;4984298;28;20025;-63
2023/03/03 05:20:50;;;;;;;45.20;14.07;;;;;;;;;;4989701;28;20056;-62
2023/03/03 05:23:16;;;;;;;41.55;13.93;;;;;;;;;;4984781;28;20037;-62
2023/03/03 05:25:41;;;;;;;35.00;12.90;;;;;;;;;;4993067;28;20168;-63
2023/03/03 05:28:07;;;;;;;37.63;13.63;;;;;;;;;;4985933;28;20560;-64
2023/03/03 05:30:32;;;;;;;50.03;13.45;;;;;;;;;;4987712;28;20544;-62
2023/03/03 05:32:58;;;;;;;39.97;13.00;;;;;;;;;;4986397;28;20028;-62
2023/03/03 05:35:23;;;;;;;44.80;13.30;;;;;;;;;;4984739;28;20034;-61
2023/03/03 05:37:48;;;;;;;43.83;13.57;;;;;;;;;;4988740;28;20022;-63
2023/03/03 05:40:13;;;;;;;45.13;13.98;;;;;;;;;;4996417;28;20029;-63
2023/03/03 05:42:39;;;;;;;45.73;14.93;;;;;;;;;;4984950;28;20449;-63
2023/03/03 05:45:04;;;;;;;49.88;14.40;;;;;;;;;;4991037;28;20478;-63
2023/03/03 05:47:30;;;;;;;42.47;14.25;;;;;;;;;;4990944;28;20021;-62
2023/03/03 05:49:55;;;;;;;47.20;14.00;;;;;;;;;;5007022;28;20016;-61
2023/03/03 05:52:20;;;;;;;48.63;14.60;;;;;;;;;;4985445;28;20476;-62
2023/03/03 05:54:46;;;;;;;44.88;13.50;;;;;;;;;;4985715;28;20022;-62
2023/03/03 05:57:11;;;;;;;46.13;13.60;;;;;;;;;;4983307;28;20057;-63
2023/03/03 05:59:36;;;;;;;46.15;14.52;;;;;;;;;;4988987;28;20397;-63
2023/03/03 06:02:01;;;;;;;44.97;13.40;;;;;;;;;;4996690;28;20444;-63
2023/03/03 06:04:26;;;;;;;50.17;13.60;;;;;;;;;;4991052;28;20018;-64
2023/03/03 06:06:51;;;;;;;42.63;13.50;;;;;;;;;;4992012;28;20028;-62
2023/03/03 06:09:18;;;;;;;46.95;13.75;;;;;;;;;;5006895;28;20424;-62
2023/03/03 06:11:43;;;;;;;37.72;12.13;;;;;;;;;;4996498;28;20053;-62
2023/03/03 06:14:08;;;;;;;47.80;13.60;;;;;;;;;;4994176;28;20056;-64
2023/03/03 06:16:33;;;;;;;37.45;12.13;;;;;;;;;;5000945;28;20029;-62
2023/03/03 06:18:58;;;;;;;39.73;12.47;;;;;;;;;;4996135;28;20026;-62
2023/03/03 06:21:23;;;;;;;43.33;12.93;;;;;;;;;;5014394;28;20096;-63
2023/03/03 06:23:49;;;;;;;49.90;13.30;;;;;;;;;;4997299;28;20393;-63
2023/03/03 06:26:14;;;;;;;40.25;12.80;;;;;;;;;;5005194;28;20014;-62
2023/03/03 06:28:39;;;;;;;41.97;13.23;;;;;;;;;;5006547;28;20019;-62
2023/03/03 06:31:04;;;;;;;42.13;13.63;;;;;;;;;;5013640;28;20068;-61
2023/03/03 06:33:29;;;;;;;44.92;13.43;;;;;;;;;;5007575;28;20038;-63
2023/03/03 06:35:54;;;;;;;44.00;13.43;;;;;;;;;;4992332;28;20026;-62
2023/03/03 06:38:20;;;;;;;47.37;14.47;;;;;;;;;;4993700;28;20034;-63
2023/03/03 06:40:45;;;;;;;45.67;13.87;;;;;;;;;;4994720;28;20405;-63
2023/03/03 06:43:11;;;;;;;44.28;13.02;;;;;;;;;;4994474;28;20028;-63
2023/03/03 06:45:36;;;;;;;43.37;13.43;;;;;;;;;;4993607;28;20028;-63
2023/03/03 06:48:01;;;;;;;41.10;12.10;;;;;;;;;;4993128;28;20018;-63
2023/03/03 06:50:26;;;;;;;42.05;13.50;;;;;;;;;;4994160;28;20093;-61
2023/03/03 06:53:06;;;;;;;47.50;13.97;;;;;;;;;;4993955;28;20022;-64
2023/03/03 06:55:31;;;;;;;51.50;14.65;;;;;;;;;;4993632;28;20018;-64
2023/03/03 06:57:57;;;;;;;46.63;14.30;;;;;;;;;;4988954;28;20014;-63
2023/03/03 07:00:24;;;;;;;50.63;14.57;;;;;;;;;;4986653;28;20018;-63
2023/03/03 07:02:59;;;;;;;42.78;12.90;;;;;;;;;;5007252;28;20124;-63
2023/03/03 07:05:25;;;;;;;39.03;12.70;;;;;;;;;;4992325;28;20031;-64
2023/03/03 07:07:50;;;;;;;44.00;13.32;;;;;;;;;;4994336;28;20112;-62
2023/03/03 07:10:23;;;;;;;37.33;12.75;;;;;;;;;;4991965;28;20501;-63
2023/03/03 07:12:48;;;;;;;38.33;12.82;;;;;;;;;;4991910;28;20093;-62
2023/03/03 07:15:15;;;;;;;34.72;11.38;;;;;;;;;;4993332;28;20442;-63
2023/03/03 07:17:43;;;;;;;41.05;12.75;;;;;;;;;;4992000;28;20038;-61
2023/03/03 07:20:17;;;;;;;40.25;12.60;;;;;;;;;;5001426;28;20026;-64
2023/03/03 07:22:42;;;;;;;38.65;13.50;;;;;;;;;;4995865;28;20018;-61
2023/03/03 07:25:18;;;;;;;40.47;12.30;;;;;;;;;;4988775;28;20037;-60
2023/03/03 07:27:43;;;;;;;37.60;11.77;;;;;;;;;;4992036;28;20531;-62
2023/03/03 07:30:23;;;;;;;39.95;13.23;;;;;;;;;;4992918;28;20042;-62
2023/03/03 07:32:52;;;;;;;42.67;11.88;;;;;;;;;;4991179;28;20058;-62
2023/03/03 07:35:27;;;;;;;38.70;12.15;;;;;;;;;;4989014;28;20026;-63
2023/03/03 07:37:52;;;;;;;43.95;12.68;;;;;;;;;;4986383;28;20957;-62
2023/03/03 07:40:47;;;;;;;41.13;13.10;;;;;;;;;;4991589;28;20249;-63
2023/03/03 07:43:21;;;;;;;34.45;11.75;;;;;;;;;;4980251;28;20429;-62
2023/03/03 07:45:46;;;;;;;39.25;11.88;;;;;;;;;;4990559;28;20026;-65
2023/03/03 07:48:23;;;;;;;47.77;12.30;;;;;;;;;;5003793;28;20521;-61
2023/03/03 07:50:48;;;;;;;39.22;11.73;;;;;;;;;;4988793;28;20030;-62
2023/03/03 07:53:20;;;;;;;39.88;11.82;;;;;;;;;;4988465;28;20372;-61
2023/03/03 07:55:46;;;;;;;37.58;11.90;;;;;;;;;;4995931;28;20034;-61
2023/03/03 07:58:15;;;;;;;35.92;11.20;;;;;;;;;;4988778;28;20018;-62
2023/03/03 08:00:58;;;;;;;39.35;12.00;;;;;;;;;;4991494;28;20025;-63
2023/03/03 08:03:24;;;;;;;39.88;11.77;;;;;;;;;;4990912;28;20023;-62
2023/03/03 08:05:50;;;;;;;38.27;11.30;;;;;;;;;;4994683;28;20077;-63
2023/03/03 08:08:25;;;;;;;42.28;12.35;;;;;;;;;;5009281;28;20395;-63
2023/03/03 08:10:52;;;;;;;52.70;12.98;;;;;;;;;;4991426;28;20029;-62
2023/03/03 08:13:19;;;;;;;35.83;10.50;;;;;;;;;;4986289;28;20026;-62
2023/03/03 08:15:45;;;;;;;32.90;10.60;;;;;;;;;;4983521;28;20033;-62
2023/03/03 08:18:16;;;;;;;34.60;10.35;;;;;;;;;;4991017;28;20014;-62
2023/03/03 08:20:45;;;;;;;33.50;10.48;;;;;;;;;;4990732;28;21792;-63
2023/03/03 08:23:11;;;;;;;30.13;10.35;;;;;;;;;;4991775;28;20172;-62
2023/03/03 08:25:37;;;;;;;30.80;9.60;;;;;;;;;;4992358;28;20019;-62
2023/03/03 08:28:02;;;;;;;34.75;10.40;;;;;;;;;;4991470;28;20494;-61
2023/03/03 08:30:27;;;;;;;32.77;9.30;;;;;;;;;;4990313;28;20109;-62
2023/03/03 08:32:52;;;;;;;29.97;9.93;;;;;;;;;;4991990;28;20110;-63
2023/03/03 08:35:18;;;;;;;26.08;8.93;;;;;;;;;;4992390;28;20029;-63
2023/03/03 08:37:43;;;;;;;36.50;10.50;;;;;;;;;;4992518;28;20545;-63
2023/03/03 08:40:08;;;;;;;29.03;8.70;;;;;;;;;;4992285;28;20026;-62
2023/03/03 08:42:33;;;;;;;30.48;10.13;;;;;;;;;;4989550;28;20038;-62
2023/03/03 08:44:58;;;;;;;40.30;11.03;;;;;;;;;;4991406;28;20023;-62
2023/03/03 08:47:24;;;;;;;27.33;9.52;;;;;;;;;;4991992;28;20068;-63
2023/03/03 08:49:49;;;;;;;27.23;8.93;;;;;;;;;;4992079;28;20027;-64
2023/03/03 08:52:14;;;;;;;30.25;8.82;;;;;;;;;;4991653;28;20023;-62
2023/03/03 08:54:39;;;;;;;27.73;9.25;;;;;;;;;;4991835;28;20030;-64
2023/03/03 08:57:04;;;;;;;25.10;9.38;;;;;;;;;;4990466;28;20096;-62
2023/03/03 08:59:30;;;;;;;25.90;8.60;;;;;;;;;;4989468;28;20018;-64
2023/03/03 09:01:55;;;;;;;29.90;9.18;;;;;;;;;;4988727;28;20053;-62
2023/03/03 09:04:20;;;;;;;23.20;8.20;;;;;;;;;;4991326;28;20026;-63
2023/03/03 09:06:45;;;;;;;30.23;9.50;;;;;;;;;;4990978;28;20084;-63
2023/03/03 09:09:10;;;;;;;29.88;9.38;;;;;;;;;;4983294;28;20065;-62
2023/03/03 09:11:35;;;;;;;25.90;9.20;;;;;;;;;;4990492;28;20033;-63
2023/03/03 09:14:05;;;;;;;25.53;8.03;;;;;;;;;;4991224;28;20074;-62
2023/03/03 09:16:33;;;;;;;25.15;8.70;;;;;;;;;;4991697;28;20470;-63
2023/03/03 09:19:05;;;;;;;27.77;9.15;;;;;;;;;;4991590;28;20041;-62
2023/03/03 09:21:34;;;;;;;21.75;7.68;;;;;;;;;;4989306;28;20379;-62
2023/03/03 09:23:59;;;;;;;25.55;8.38;;;;;;;;;;4989201;28;20668;-63
2023/03/03 09:26:27;;;;;;;23.30;8.35;;;;;;;;;;4992060;28;20038;-61
2023/03/03 09:28:53;;;;;;;26.08;9.25;;;;;;;;;;4992911;28;20014;-64
2023/03/03 09:31:21;;;;;;;20.90;7.57;;;;;;;;;;4992203;28;20031;-63
2023/03/03 09:33:48;;;;;;;21.48;8.02;;;;;;;;;;4991890;28;20447;-63
2023/03/03 09:36:23;;;;;;;23.75;8.48;;;;;;;;;;4992016;28;20022;-61
2023/03/03 09:38:48;;;;;;;22.30;7.65;;;;;;;;;;4982823;28;20050;-62
2023/03/03 09:41:32;;;;;;;21.02;7.15;;;;;;;;;;4990429;28;20048;-61
2023/03/03 09:44:16;;;;;;;24.20;7.53;;;;;;;;;;4983533;28;20026;-61
2023/03/03 09:47:07;;;;;;;19.30;7.05;;;;;;;;;;4992188;28;20042;-62
2023/03/03 09:49:32;;;;;;;21.40;7.45;;;;;;;;;;4991446;28;20386;-63
2023/03/03 09:52:16;;;;;;;18.05;6.85;;;;;;;;;;4989364;28;20397;-63
2023/03/03 09:55:00;;;;;;;19.25;6.93;;;;;;;;;;4990574;28;20073;-63
2023/03/03 09:57:33;;;;;;;15.98;6.72;;;;;;;;;;4991497;28;20198;-62
2023/03/03 10:00:08;;;;;;;15.68;5.72;;;;;;;;;;4989923;28;20073;-62
2023/03/03 10:02:40;;;;;;;15.43;6.32;;;;;;;;;;4991171;28;20037;-63
2023/03/03 10:05:15;;;;;;;18.83;6.38;;;;;;;;;;4990467;28;20396;-63
2023/03/03 10:07:53;;;;;;;13.68;5.55;;;;;;;;;;4990462;28;20113;-63
2023/03/03 10:10:24;;;;;;;13.63;5.03;;;;;;;;;;4989884;28;20025;-63
2023/03/03 10:13:10;;;;;;;13.75;5.28;;;;;;;;;;4991009;28;20019;-63
2023/03/03 10:15:41;;;;;;;16.30;5.97;;;;;;;;;;4990127;28;20023;-63
2023/03/03 10:18:06;;;;;;;16.67;5.72;;;;;;;;;;4989795;28;20042;-62
2023/03/03 10:20:36;;;;;;;12.75;5.18;;;;;;;;;;4988593;28;20045;-63
2023/03/03 10:23:22;;;;;;;13.98;5.10;;;;;;;;;;4990220;28;20022;-63
2023/03/03 10:26:15;;;;;;;13.10;5.20;;;;;;;;;;4991101;28;20029;-63
2023/03/03 10:28:56;;;;;;;13.32;5.25;;;;;;;;;;4990443;28;20019;-64
2023/03/03 10:31:35;;;;;;;14.85;5.70;;;;;;;;;;4989203;28;20026;-63
2023/03/03 10:34:19;;;;;;;16.30;6.00;;;;;;;;;;4989430;28;20109;-63
2023/03/03 10:36:44;;;;;;;15.18;5.75;;;;;;;;;;4990553;28;20033;-63
2023/03/03 10:39:26;;;;;;;14.68;5.70;;;;;;;;;;4989320;28;20022;-63
2023/03/03 10:42:11;;;;;;;16.67;5.70;;;;;;;;;;4990681;28;20026;-63
2023/03/03 10:44:45;;;;;;;14.52;5.60;;;;;;;;;;4990158;28;20478;-63
2023/03/03 10:47:22;;;;;;;13.52;5.90;;;;;;;;;;4990896;28;20117;-63
2023/03/03 10:49:57;;;;;;;15.63;5.43;;;;;;;;;;4987113;28;20018;-63
2023/03/03 10:52:29;;;;;;;13.00;5.13;;;;;;;;;;4990243;28;20029;-63
2023/03/03 10:55:03;;;;;;;11.88;4.35;;;;;;;;;;4992765;28;20030;-63
2023/03/03 10:57:34;;;;;;;12.90;5.10;;;;;;;;;;4985755;28;20019;-63
2023/03/03 11:00:17;;;;;;;12.88;4.63;;;;;;;;;;4988447;28;20030;-63
2023/03/03 11:02:55;;;;;;;10.93;4.35;;;;;;;;;;4994099;28;20101;-63
2023/03/03 11:05:28;;;;;;;11.60;4.10;;;;;;;;;;4993683;28;20069;-63
2023/03/03 11:08:14;;;;;;;12.27;3.75;;;;;;;;;;4984868;28;20019;-63
2023/03/03 11:10:57;;;;;;;12.98;4.65;;;;;;;;;;4993612;28;20386;-63
2023/03/03 11:13:31;;;;;;;11.15;4.18;;;;;;;;;;4993374;28;20026;-62
2023/03/03 11:16:13;;;;;;;13.82;4.55;;;;;;;;;;4994222;28;20038;-63
2023/03/03 11:18:53;;;;;;;10.07;3.70;;;;;;;;;;4993472;28;20122;-64
2023/03/03 11:21:25;;;;;;;11.18;3.90;;;;;;;;;;4995702;28;20054;-62
2023/03/03 11:23:59;;;;;;;8.88;3.45;;;;;;;;;;4994636;28;20036;-63
2023/03/03 11:26:33;;;;;;;12.30;3.83;;;;;;;;;;4995776;28;20057;-64
2023/03/03 11:29:03;;;;;;;13.00;4.82;;;;;;;;;;4995881;28;20029;-63
2023/03/03 11:31:45;;;;;;;11.48;3.80;;;;;;;;;;4996884;28;20026;-64
2023/03/03 11:34:23;;;;;;;10.30;3.25;;;;;;;;;;4994851;28;20545;-63
2023/03/03 11:36:54;;;;;;;13.10;3.97;;;;;;;;;;4994412;28;20081;-63
2023/03/03 11:39:20;;;;;;;8.68;3.70;;;;;;;;;;4982989;28;20029;-62
2023/03/03 11:41:49;;;;;;;13.07;4.10;;;;;;;;;;4990788;28;20374;-63
2023/03/03 11:44:35;;;;;;;10.23;3.65;;;;;;;;;;4992737;28;20022;-63
2023/03/03 11:47:00;;;;;;;11.82;4.30;;;;;;;;;;4993615;28;20038;-61
2023/03/03 11:49:34;;;;;;;12.43;4.63;;;;;;;;;;4992296;28;20049;-62
2023/03/03 11:52:22;;;;;;;13.73;4.90;;;;;;;;;;4989186;28;20018;-63
2023/03/03 11:54:53;;;;;;;12.18;4.53;;;;;;;;;;4983432;28;20045;-61
2023/03/03 11:57:24;;;;;;;11.73;4.50;;;;;;;;;;4992085;28;20029;-62
2023/03/03 11:59:54;;;;;;;11.73;4.32;;;;;;;;;;4993074;28;20225;-63
2023/03/03 12:02:29;;;;;;;13.43;4.97;;;;;;;;;;4991908;28;20145;-62
2023/03/03 12:05:03;;;;;;;9.77;4.03;;;;;;;;;;4991522;28;20045;-62
2023/03/03 12:07:34;;;;;;;10.27;4.13;;;;;;;;;;4992645;28;20018;-64
2023/03/03 12:09:59;;;;;;;10.88;4.22;;;;;;;;;;4992843;28;20019;-64
2023/03/03 12:12:24;;;;;;;9.90;3.45;;;;;;;;;;4986995;28;20027;-62
2023/03/03 12:15:08;;;;;;;11.27;3.85;;;;;;;;;;4990527;28;20025;-64
2023/03/03 12:17:51;;;;;;;11.48;4.10;;;;;;;;;;4993000;28;20030;-62
2023/03/03 12:20:21;;;;;;;11.13;4.22;;;;;;;;;;4983894;28;20023;-62
2023/03/03 12:22:58;;;;;;;11.02;3.58;;;;;;;;;;4981521;28;20044;-63
2023/03/03 12:25:39;;;;;;;11.65;4.00;;;;;;;;;;4992071;28;20026;-63
2023/03/03 12:28:10;;;;;;;10.43;3.67;;;;;;;;;;4992637;28;20088;-63
2023/03/03 12:30:42;;;;;;;11.48;4.00;;;;;;;;;;4991341;28;20072;-63
2023/03/03 12:33:21;;;;;;;9.13;3.38;;;;;;;;;;4991258;28;20022;-63
2023/03/03 12:35:48;;;;;;;11.20;3.63;;;;;;;;;;4992358;28;20375;-62
2023/03/03 12:38:13;;;;;;;9.25;3.13;;;;;;;;;;4991621;28;20126;-61
2023/03/03 12:41:00;;;;;;;10.40;3.60;;;;;;;;;;4992334;28;20148;-62
2023/03/03 12:43:44;;;;;;;8.70;3.20;;;;;;;;;;4990493;28;20018;-62
2023/03/03 12:46:16;;;;;;;9.02;3.35;;;;;;;;;;4987225;28;20025;-63
2023/03/03 12:48:43;;;;;;;9.57;3.70;;;;;;;;;;4990115;28;20084;-65
2023/03/03 12:51:11;;;;;;;11.15;3.25;;;;;;;;;;4992236;28;20026;-62
2023/03/03 12:53:41;;;;;;;8.02;3.22;;;;;;;;;;4990880;28;20022;-62
2023/03/03 12:56:11;;;;;;;9.38;3.05;;;;;;;;;;4992477;28;20031;-62
2023/03/03 12:58:39;;;;;;;10.02;3.30;;;;;;;;;;4991981;28;20022;-61
2023/03/03 13:01:12;;;;;;;10.45;3.30;;;;;;;;;;4992746;28;20026;-63
2023/03/03 13:03:56;;;;;;;9.57;2.92;;;;;;;;;;4990947;28;20490;-62
2023/03/03 13:06:28;;;;;;;6.53;2.38;;;;;;;;;;4993053;28;20049;-64
2023/03/03 13:08:56;;;;;;;7.88;2.40;;;;;;;;;;4992690;28;20022;-63
2023/03/03 13:11:29;;;;;;;7.78;2.55;;;;;;;;;;4992500;28;20029;-61
2023/03/03 13:14:09;;;;;;;7.35;2.88;;;;;;;;;;4988699;28;20030;-63
2023/03/03 13:16:37;;;;;;;7.55;2.63;;;;;;;;;;4991491;28;20026;-63
2023/03/03 13:19:09;;;;;;;8.02;2.65;;;;;;;;;;4991659;28;20022;-62
2023/03/03 13:21:38;;;;;;;9.93;3.10;;;;;;;;;;4991569;28;20367;-62
2023/03/03 13:24:15;;;;;;;8.48;2.58;;;;;;;;;;4989626;28;20414;-62
2023/03/03 13:26:47;;;;;;;8.65;2.65;;;;;;;;;;4989933;28;20025;-63
2023/03/03 13:29:21;;;;;;;9.43;3.45;;;;;;;;;;4990790;28;20377;-64
2023/03/03 13:31:50;;;;;;;8.98;3.10;;;;;;;;;;4991557;28;20023;-63
2023/03/03 13:34:21;;;;;;;8.82;2.95;;;;;;;;;;4990310;28;20026;-62
2023/03/03 13:36:52;;;;;;;9.65;3.20;;;;;;;;;;4988852;28;20556;-61
2023/03/03 13:39:21;;;;;;;10.63;3.60;;;;;;;;;;4986054;28;20029;-63
2023/03/03 13:41:55;;;;;;;9.18;3.30;;;;;;;;;;4991397;28;20117;-63
2023/03/03 13:44:29;;;;;;;10.85;3.50;;;;;;;;;;4988991;28;20026;-62
2023/03/03 13:47:00;;;;;;;8.00;2.95;;;;;;;;;;4989455;28;20049;-62
2023/03/03 13:49:31;;;;;;;10.05;3.50;;;;;;;;;;4989412;28;20023;-62
2023/03/03 13:52:00;;;;;;;9.63;3.60;;;;;;;;;;4991776;28;20018;-63
2023/03/03 13:54:44;;;;;;;10.55;3.53;;;;;;;;;;4990532;28;20370;-63
2023/03/03 13:57:17;;;;;;;10.63;3.20;;;;;;;;;;4991120;28;20048;-62
2023/03/03 14:00:01;;;;;;;10.93;3.50;;;;;;;;;;4997240;28;20018;-63
2023/03/03 14:02:40;;;;;;;8.25;3.40;;;;;;;;;;4990166;28;20025;-63
2023/03/03 14:05:17;;;;;;;9.43;3.10;;;;;;;;;;4982346;28;20018;-63
2023/03/03 14:07:42;;;;;;;8.25;2.97;;;;;;;;;;4985140;28;20022;-63
2023/03/03 14:10:09;;;;;;;9.45;3.28;;;;;;;;;;4993020;28;20023;-63
2023/03/03 14:12:37;;;;;;;8.43;2.80;;;;;;;;;;4991411;28;20533;-61
2023/03/03 14:15:03;;;;;;;8.98;3.05;;;;;;;;;;4991820;28;20022;-63
2023/03/03 14:17:43;;;;;;;8.95;3.30;;;;;;;;;;4993707;28;20014;-62
2023/03/03 14:20:12;;;;;;;10.07;3.25;;;;;;;;;;4990573;28;20023;-62
2023/03/03 14:22:44;;;;;;;9.43;3.63;;;;;;;;;;4994016;28;20033;-64
2023/03/03 14:25:10;;;;;;;10.32;3.75;;;;;;;;;;4993604;28;20105;-64
2023/03/03 14:27:39;;;;;;;10.73;3.78;;;;;;;;;;4991507;28;20019;-64
2023/03/03 14:30:23;;;;;;;10.93;3.70;;;;;;;;;;4992763;28;20026;-62
2023/03/03 14:32:58;;;;;;;9.60;3.75;;;;;;;;;;4983714;28;20022;-63
2023/03/03 14:35:28;;;;;;;8.57;3.15;;;;;;;;;;4993838;28;20030;-63